Time;durP1;ratioP1;P1;durP2;ratioP2;P2;SDS_P1;SDS_P2;PMS_P1;PMS_P2;Temp;Humidity;BMP_temperature;BMP_pressure;BME280_temperature;BME280_humidity;BME280_pressure;Samples;Min_cycle;Max_cycle;Signal;HPM_P1;HPM_P2
2021/10/14 00:00:09;;;;;;;8.20;4.82;;;12.10;99.90;;;;;;6245383;23;20028;-90
2021/10/14 00:02:36;;;;;;;9.48;5.13;;;12.10;99.90;;;;;;6245197;23;20001;-90
2021/10/14 00:05:02;;;;;;;9.43;4.75;;;12.10;99.90;;;;;;6232599;23;20007;-90
2021/10/14 00:07:27;;;;;;;6.85;4.85;;;12.10;99.90;;;;;;6228848;23;20011;-90
2021/10/14 00:09:53;;;;;;;7.45;3.97;;;12.10;99.90;;;;;;6225742;23;20015;-91
2021/10/14 00:12:19;;;;;;;6.80;4.38;;;12.10;99.90;;;;;;6225266;23;20004;-91
2021/10/14 00:14:44;;;;;;;7.55;4.35;;;12.10;99.90;;;;;;6226677;23;20004;-91
2021/10/14 00:17:10;;;;;;;5.50;3.85;;;12.10;99.90;;;;;;6222963;23;20435;-91
2021/10/14 00:19:36;;;;;;;9.05;4.38;;;12.10;99.90;;;;;;6221710;23;20017;-90
2021/10/14 00:22:01;;;;;;;5.80;4.05;;;12.10;99.90;;;;;;6222015;23;20086;-91
2021/10/14 00:24:28;;;;;;;5.88;4.35;;;12.10;99.90;;;;;;6220751;23;20000;-91
2021/10/14 00:26:54;;;;;;;7.03;4.50;;;12.10;99.90;;;;;;6221379;23;20008;-91
2021/10/14 00:29:19;;;;;;;7.00;4.07;;;12.00;99.90;;;;;;6220816;23;20503;-91
2021/10/14 00:31:45;;;;;;;7.70;4.72;;;12.10;99.90;;;;;;6220661;23;20332;-91
2021/10/14 00:34:10;;;;;;;13.13;5.88;;;12.00;99.90;;;;;;6220990;23;20069;-90
2021/10/14 00:36:36;;;;;;;7.65;4.80;;;12.00;99.90;;;;;;6220680;23;20012;-92
2021/10/14 00:39:02;;;;;;;6.53;4.47;;;12.00;99.90;;;;;;6220431;23;20004;-90
2021/10/14 00:41:28;;;;;;;8.27;5.10;;;12.00;99.90;;;;;;6220519;23;20004;-91
2021/10/14 00:43:56;;;;;;;6.40;4.43;;;12.00;99.90;;;;;;6220085;23;20033;-89
2021/10/14 00:46:22;;;;;;;11.18;5.85;;;12.00;99.90;;;;;;6220312;23;20004;-91
2021/10/14 00:48:47;;;;;;;12.85;8.48;;;12.00;99.90;;;;;;6220634;23;20010;-91
2021/10/14 00:51:13;;;;;;;13.95;9.70;;;12.00;99.90;;;;;;6222096;23;20381;-90
2021/10/14 00:53:39;;;;;;;15.00;9.30;;;11.90;99.90;;;;;;6222418;23;20011;-91
2021/10/14 00:56:08;;;;;;;17.05;10.00;;;12.00;99.90;;;;;;6221953;23;20044;-91
2021/10/14 00:58:36;;;;;;;10.80;8.55;;;11.90;99.90;;;;;;6222347;23;20016;-91
2021/10/14 01:01:04;;;;;;;13.95;9.68;;;12.00;99.90;;;;;;6222051;23;20004;-91
2021/10/14 01:03:30;;;;;;;14.75;10.15;;;12.00;99.90;;;;;;6222157;23;20008;-90
2021/10/14 01:05:56;;;;;;;12.02;8.77;;;11.90;99.90;;;;;;6222247;23;20007;-91
2021/10/14 01:08:22;;;;;;;15.90;8.98;;;11.90;99.90;;;;;;6222241;23;20008;-91
2021/10/14 01:10:48;;;;;;;9.45;7.03;;;11.90;99.90;;;;;;6222300;23;20020;-89
2021/10/14 01:13:15;;;;;;;12.23;8.02;;;11.90;99.90;;;;;;6222526;23;20038;-89
2021/10/14 01:15:41;;;;;;;11.52;7.10;;;11.90;99.90;;;;;;6222414;23;20566;-89
2021/10/14 01:18:06;;;;;;;16.75;8.63;;;11.90;99.90;;;;;;6224095;23;20004;-89
2021/10/14 01:20:32;;;;;;;13.55;7.85;;;11.90;99.90;;;;;;6224546;23;20080;-90
2021/10/14 01:22:58;;;;;;;10.27;6.88;;;11.90;99.90;;;;;;6225670;23;20026;-92
2021/10/14 01:25:25;;;;;;;13.13;8.38;;;11.90;99.90;;;;;;6223270;23;20004;-91
2021/10/14 01:27:52;;;;;;;13.65;7.82;;;11.90;99.90;;;;;;6221995;23;20336;-90
2021/10/14 01:30:18;;;;;;;15.45;8.73;;;11.90;99.90;;;;;;6221437;22;20015;-90
2021/10/14 01:32:46;;;;;;;18.67;8.20;;;11.90;99.90;;;;;;6221547;23;20031;-90
2021/10/14 01:35:12;;;;;;;14.63;8.82;;;11.80;99.90;;;;;;6221745;23;20011;-90
2021/10/14 01:37:38;;;;;;;12.75;8.23;;;11.90;99.90;;;;;;6221744;23;20033;-90
2021/10/14 01:40:05;;;;;;;11.88;7.57;;;11.90;99.90;;;;;;6221353;23;20016;-90
2021/10/14 01:42:31;;;;;;;12.90;8.02;;;11.90;99.90;;;;;;6221361;23;20008;-89
2021/10/14 01:45:01;;;;;;;8.90;6.65;;;11.90;99.90;;;;;;6221723;23;20019;-90
2021/10/14 01:47:31;;;;;;;11.40;6.95;;;11.80;99.90;;;;;;6221200;23;20091;-90
2021/10/14 01:49:57;;;;;;;11.00;7.75;;;11.90;99.90;;;;;;6221938;23;20011;-91
2021/10/14 01:52:23;;;;;;;12.90;8.07;;;11.80;99.90;;;;;;6221946;23;20038;-90
2021/10/14 01:54:49;;;;;;;12.95;7.32;;;11.80;99.90;;;;;;6221611;23;20558;-90
2021/10/14 01:57:15;;;;;;;13.00;7.38;;;11.80;99.90;;;;;;6221139;23;20094;-90
2021/10/14 01:59:40;;;;;;;9.18;6.38;;;11.80;99.90;;;;;;6221995;23;20004;-89
2021/10/14 02:02:06;;;;;;;11.82;7.15;;;11.80;99.90;;;;;;6220991;23;20470;-90
2021/10/14 02:04:32;;;;;;;10.77;6.97;;;11.80;99.90;;;;;;6221102;23;20004;-91
2021/10/14 02:06:58;;;;;;;16.50;7.50;;;11.90;99.90;;;;;;6221405;23;20034;-90
2021/10/14 02:09:23;;;;;;;10.95;7.28;;;11.80;99.90;;;;;;6221793;23;20023;-90
2021/10/14 02:11:49;;;;;;;14.63;7.13;;;11.80;99.90;;;;;;6222033;23;20012;-90
2021/10/14 02:14:15;;;;;;;11.95;6.93;;;11.80;99.90;;;;;;6221132;23;20062;-90
2021/10/14 02:16:40;;;;;;;11.23;6.68;;;11.80;99.90;;;;;;6221333;23;20645;-90
2021/10/14 02:19:06;;;;;;;8.75;6.38;;;11.80;99.90;;;;;;6220471;23;20011;-90
2021/10/14 02:21:32;;;;;;;9.20;5.88;;;11.80;99.90;;;;;;6221466;23;20065;-91
2021/10/14 02:23:57;;;;;;;10.05;6.43;;;11.80;99.90;;;;;;6220874;23;20010;-91
2021/10/14 02:26:23;;;;;;;11.18;6.63;;;11.80;99.90;;;;;;6220989;23;20016;-91
2021/10/14 02:28:49;;;;;;;12.15;6.47;;;11.70;99.90;;;;;;6220652;23;20493;-90
2021/10/14 02:31:15;;;;;;;11.52;5.72;;;11.80;99.90;;;;;;6221798;23;20011;-90
2021/10/14 02:33:40;;;;;;;8.52;5.88;;;11.80;99.90;;;;;;6221134;23;20000;-89
2021/10/14 02:36:06;;;;;;;10.38;6.57;;;11.70;99.90;;;;;;6220911;23;20016;-89
2021/10/14 02:38:32;;;;;;;11.13;6.55;;;11.70;99.90;;;;;;6220965;23;19996;-90
2021/10/14 02:40:57;;;;;;;9.77;6.65;;;11.70;99.90;;;;;;6220730;23;20015;-91
2021/10/14 02:43:23;;;;;;;8.88;5.85;;;11.70;99.90;;;;;;6220827;23;20032;-90
2021/10/14 02:45:49;;;;;;;8.82;5.68;;;11.70;99.90;;;;;;6220717;23;20063;-90
2021/10/14 02:48:14;;;;;;;9.32;5.55;;;11.70;99.90;;;;;;6221192;23;20004;-90
2021/10/14 02:50:40;;;;;;;8.15;5.68;;;11.70;99.90;;;;;;6220860;23;20008;-90
2021/10/14 02:53:06;;;;;;;10.70;6.05;;;11.60;99.90;;;;;;6218945;23;20050;-89
2021/10/14 02:55:31;;;;;;;11.50;5.60;;;11.60;99.90;;;;;;6219258;23;20450;-90
2021/10/14 02:57:57;;;;;;;8.98;5.50;;;11.70;99.90;;;;;;6218827;23;20087;-90
2021/10/14 03:00:23;;;;;;;8.02;5.90;;;11.70;99.90;;;;;;6219475;23;20017;-90
2021/10/14 03:02:49;;;;;;;10.07;5.45;;;11.70;99.90;;;;;;6219580;23;20431;-89
2021/10/14 03:05:14;;;;;;;8.32;5.78;;;11.60;99.90;;;;;;6221783;23;20046;-89
2021/10/14 03:07:40;;;;;;;9.70;6.30;;;11.70;99.90;;;;;;6221903;23;20008;-89
2021/10/14 03:10:08;;;;;;;8.40;5.60;;;11.60;99.90;;;;;;6223967;23;20039;-89
2021/10/14 03:12:34;;;;;;;11.43;5.65;;;11.60;99.90;;;;;;6222435;23;20008;-90
2021/10/14 03:15:00;;;;;;;11.35;6.13;;;11.70;99.90;;;;;;6220133;23;20073;-89
2021/10/14 03:17:26;;;;;;;10.55;6.35;;;11.70;99.90;;;;;;6219933;23;20030;-90
2021/10/14 03:19:51;;;;;;;8.82;5.55;;;11.60;99.90;;;;;;6220460;23;20007;-89
2021/10/14 03:22:17;;;;;;;6.57;5.25;;;11.60;99.90;;;;;;6220188;23;20058;-89
2021/10/14 03:24:42;;;;;;;10.95;5.78;;;11.60;99.90;;;;;;6220021;23;20475;-89
2021/10/14 03:27:08;;;;;;;10.27;6.25;;;11.60;99.90;;;;;;6220062;23;20332;-89
2021/10/14 03:29:34;;;;;;;10.93;7.22;;;11.60;99.90;;;;;;6219808;23;20095;-91
2021/10/14 03:31:59;;;;;;;10.27;5.43;;;11.60;99.90;;;;;;6219590;23;20007;-88
2021/10/14 03:34:25;;;;;;;8.65;5.82;;;11.60;99.90;;;;;;6220289;23;20039;-89
2021/10/14 03:36:51;;;;;;;8.95;5.45;;;11.60;99.90;;;;;;6220631;23;20016;-88
2021/10/14 03:39:16;;;;;;;11.43;6.95;;;11.60;99.90;;;;;;6221618;23;20397;-89
2021/10/14 03:41:42;;;;;;;10.80;5.72;;;11.60;99.90;;;;;;6221574;23;20054;-89
2021/10/14 03:44:08;;;;;;;10.45;5.90;;;11.60;99.90;;;;;;6222990;23;20019;-89
2021/10/14 03:46:33;;;;;;;8.38;5.95;;;11.60;99.90;;;;;;6224826;23;20008;-89
2021/10/14 03:48:59;;;;;;;8.80;6.07;;;11.60;99.90;;;;;;6226741;23;20439;-90
2021/10/14 03:51:25;;;;;;;11.63;6.13;;;11.60;99.90;;;;;;6232120;23;20004;-89
2021/10/14 03:53:51;;;;;;;10.88;5.20;;;11.60;99.90;;;;;;6245951;23;20008;-89
2021/10/14 03:56:16;;;;;;;8.90;5.20;;;11.60;99.90;;;;;;6245997;23;20024;-89
2021/10/14 03:58:42;;;;;;;10.48;5.97;;;11.60;99.90;;;;;;6237055;23;20007;-90
2021/10/14 04:01:07;;;;;;;9.90;7.30;;;11.60;99.90;;;;;;6221161;23;20008;-89
2021/10/14 04:03:33;;;;;;;8.90;6.35;;;11.60;99.90;;;;;;6219656;23;20000;-90
2021/10/14 04:05:59;;;;;;;12.32;6.30;;;11.70;99.90;;;;;;6220108;23;20116;-90
2021/10/14 04:08:24;;;;;;;9.80;6.95;;;11.60;99.90;;;;;;6219738;23;20476;-90
2021/10/14 04:10:50;;;;;;;11.77;6.07;;;11.60;99.90;;;;;;6219191;23;20028;-90
2021/10/14 04:13:16;;;;;;;10.05;6.38;;;11.60;99.90;;;;;;6219336;23;20011;-90
2021/10/14 04:15:41;;;;;;;11.60;6.53;;;11.60;99.90;;;;;;6219234;23;20012;-89
2021/10/14 04:18:07;;;;;;;9.57;6.25;;;11.60;99.90;;;;;;6219200;23;20138;-89
2021/10/14 04:20:34;;;;;;;7.32;4.95;;;11.70;99.90;;;;;;6219386;23;20087;-89
2021/10/14 04:22:59;;;;;;;13.05;6.80;;;11.60;99.90;;;;;;6219719;23;20008;-89
2021/10/14 04:25:26;;;;;;;11.75;5.63;;;11.60;99.90;;;;;;6218864;23;20031;-89
2021/10/14 04:27:52;;;;;;;9.68;5.65;;;11.70;99.90;;;;;;6219684;23;20019;-89
2021/10/14 04:30:18;;;;;;;9.60;6.05;;;11.70;99.90;;;;;;6219385;22;20079;-90
2021/10/14 04:32:44;;;;;;;11.38;6.05;;;11.60;99.90;;;;;;6219265;23;20048;-91
2021/10/14 04:35:10;;;;;;;12.07;5.15;;;11.70;99.90;;;;;;6218904;23;20015;-89
2021/10/14 04:37:43;;;;;;;7.95;4.95;;;11.60;99.90;;;;;;6219107;23;20017;-89
2021/10/14 04:40:10;;;;;;;7.63;4.63;;;11.60;99.90;;;;;;6220179;23;20004;-90
2021/10/14 04:42:35;;;;;;;8.00;4.50;;;11.60;99.90;;;;;;6219222;23;20010;-90
2021/10/14 04:45:01;;;;;;;10.15;5.65;;;11.60;99.90;;;;;;6218514;23;20091;-90
2021/10/14 04:47:27;;;;;;;12.13;6.20;;;11.60;99.90;;;;;;6218516;23;20020;-90
2021/10/14 04:49:52;;;;;;;13.63;6.15;;;11.70;99.90;;;;;;6218913;23;20337;-89
2021/10/14 04:52:18;;;;;;;9.65;4.00;;;11.60;99.90;;;;;;6219674;23;20004;-89
2021/10/14 04:54:44;;;;;;;9.35;4.75;;;11.70;99.90;;;;;;6221060;23;20027;-89
2021/10/14 04:57:10;;;;;;;7.05;3.85;;;11.70;99.90;;;;;;6223806;23;20055;-89
2021/10/14 04:59:36;;;;;;;8.57;5.38;;;11.60;99.90;;;;;;6222264;23;20008;-90
2021/10/14 05:02:01;;;;;;;7.32;4.63;;;11.70;99.90;;;;;;6219361;23;20436;-89
2021/10/14 05:04:27;;;;;;;6.88;4.53;;;11.70;99.90;;;;;;6218612;23;20348;-89
2021/10/14 05:06:53;;;;;;;6.93;4.50;;;11.70;99.90;;;;;;6218759;23;20004;-90
2021/10/14 05:09:19;;;;;;;7.50;4.20;;;11.70;99.90;;;;;;6218263;23;20012;-90
2021/10/14 05:11:44;;;;;;;9.63;5.45;;;11.60;99.90;;;;;;6218530;23;20091;-89
2021/10/14 05:14:10;;;;;;;8.40;5.10;;;11.70;99.90;;;;;;6218078;23;20011;-90
2021/10/14 05:16:35;;;;;;;8.60;5.47;;;11.60;99.90;;;;;;6218745;23;20019;-88
2021/10/14 05:19:02;;;;;;;6.88;4.88;;;11.60;99.90;;;;;;6218910;23;20057;-89
2021/10/14 05:21:28;;;;;;;6.35;4.13;;;11.60;99.90;;;;;;6219242;23;20008;-91
2021/10/14 05:23:59;;;;;;;10.23;4.13;;;11.60;99.90;;;;;;6219004;23;20123;-90
2021/10/14 05:26:28;;;;;;;6.95;4.22;;;11.60;99.90;;;;;;6218615;23;20455;-90
2021/10/14 05:28:55;;;;;;;7.53;4.60;;;11.60;99.90;;;;;;6219585;23;20004;-89
2021/10/14 05:31:20;;;;;;;6.75;4.63;;;11.60;99.90;;;;;;6219141;23;20016;-91
2021/10/14 05:33:46;;;;;;;5.90;4.13;;;11.60;99.90;;;;;;6219052;23;20436;-90
2021/10/14 05:36:12;;;;;;;4.95;3.85;;;11.50;99.90;;;;;;6218284;23;20035;-90
2021/10/14 05:38:37;;;;;;;6.22;4.03;;;11.50;99.90;;;;;;6220463;23;20420;-89
2021/10/14 05:41:03;;;;;;;7.40;4.18;;;11.50;99.90;;;;;;6220490;23;20011;-90
2021/10/14 05:43:29;;;;;;;6.13;4.20;;;11.50;99.90;;;;;;6219099;23;20428;-89
2021/10/14 05:45:55;;;;;;;5.93;3.13;;;11.50;99.90;;;;;;6220445;23;20004;-93
2021/10/14 05:48:21;;;;;;;4.88;3.38;;;11.50;99.90;;;;;;6221240;23;20015;-90
2021/10/14 05:50:46;;;;;;;5.97;3.17;;;11.50;99.90;;;;;;6221640;23;20012;-90
2021/10/14 05:53:12;;;;;;;5.15;3.33;;;11.50;99.90;;;;;;6220921;23;20032;-92
2021/10/14 05:55:37;;;;;;;7.60;3.35;;;11.40;99.90;;;;;;6220464;23;20027;-90
2021/10/14 05:58:03;;;;;;;4.68;3.33;;;11.40;99.90;;;;;;6219966;23;20076;-91
2021/10/14 06:00:29;;;;;;;4.75;3.30;;;11.40;99.90;;;;;;6220655;23;20023;-90
2021/10/14 06:02:54;;;;;;;8.43;2.88;;;11.40;99.90;;;;;;6220078;23;20768;-90
2021/10/14 06:05:20;;;;;;;5.63;2.72;;;11.40;99.90;;;;;;6220497;23;20001;-91
2021/10/14 06:07:47;;;;;;;4.72;2.90;;;11.30;99.90;;;;;;6220001;23;20008;-90
2021/10/14 06:10:14;;;;;;;9.05;2.72;;;11.30;99.90;;;;;;6219636;23;20016;-90
2021/10/14 06:12:39;;;;;;;4.13;2.78;;;11.30;99.90;;;;;;6222461;23;20030;-90
2021/10/14 06:15:09;;;;;;;8.02;3.13;;;11.30;99.90;;;;;;6231193;23;20004;-92
2021/10/14 06:17:35;;;;;;;4.22;2.95;;;11.20;99.90;;;;;;6255018;23;20068;-91
2021/10/14 06:20:01;;;;;;;6.30;2.80;;;11.20;99.90;;;;;;6224169;23;20023;-90
2021/10/14 06:22:26;;;;;;;7.60;3.50;;;11.20;99.90;;;;;;6216643;23;20023;-91
2021/10/14 06:24:52;;;;;;;3.88;3.20;;;11.20;99.90;;;;;;6217926;23;20000;-91
2021/10/14 06:27:59;;;;;;;5.35;3.00;;;11.20;99.90;;;;;;6226407;23;20012;-92
2021/10/14 06:30:25;;;;;;;6.25;3.63;;;11.20;99.90;;;;;;6197753;23;20000;-90
2021/10/14 06:32:51;;;;;;;9.18;3.85;;;11.20;99.90;;;;;;6219594;23;20012;-91
2021/10/14 06:35:16;;;;;;;6.80;3.50;;;11.20;99.90;;;;;;6219585;23;20004;-90
2021/10/14 06:37:42;;;;;;;6.80;3.75;;;11.20;99.90;;;;;;6220057;23;20046;-91
2021/10/14 06:40:08;;;;;;;8.23;3.72;;;11.20;99.90;;;;;;6223127;23;20014;-92
2021/10/14 06:42:34;;;;;;;6.82;3.78;;;11.10;99.90;;;;;;6225940;23;20008;-91
2021/10/14 06:45:00;;;;;;;4.45;2.97;;;11.10;99.90;;;;;;6223687;23;20450;-90
2021/10/14 06:47:26;;;;;;;5.40;3.67;;;11.10;99.90;;;;;;6219982;23;20032;-90
2021/10/14 06:49:51;;;;;;;5.70;3.63;;;11.10;99.90;;;;;;6220192;23;20094;-90
2021/10/14 06:52:17;;;;;;;5.28;3.22;;;11.10;99.90;;;;;;6219866;23;20004;-90
2021/10/14 06:54:44;;;;;;;9.88;3.30;;;11.00;99.90;;;;;;6220084;23;20039;-90
2021/10/14 06:57:10;;;;;;;5.25;3.70;;;11.00;99.90;;;;;;6220500;23;20073;-90
2021/10/14 06:59:36;;;;;;;6.85;3.55;;;11.10;99.90;;;;;;6219874;23;20000;-90
2021/10/14 07:02:02;;;;;;;5.40;3.40;;;11.00;99.90;;;;;;6219630;23;20082;-90
2021/10/14 07:04:27;;;;;;;5.43;3.53;;;11.00;99.90;;;;;;6219602;23;20010;-89
2021/10/14 07:06:53;;;;;;;9.40;3.92;;;11.00;99.90;;;;;;6220337;23;20008;-91
2021/10/14 07:09:19;;;;;;;8.35;4.32;;;11.10;99.90;;;;;;6219105;23;20016;-91
2021/10/14 07:11:52;;;;;;;5.97;3.80;;;11.10;99.90;;;;;;6219677;23;20561;-90
2021/10/14 07:14:19;;;;;;;8.82;4.30;;;11.10;99.90;;;;;;6219657;23;20431;-91
2021/10/14 07:16:45;;;;;;;7.00;4.13;;;11.10;99.90;;;;;;6220428;23;20016;-91
2021/10/14 07:19:11;;;;;;;7.10;4.28;;;11.10;99.90;;;;;;6220315;23;20088;-91
2021/10/14 07:21:37;;;;;;;5.78;4.00;;;11.10;99.90;;;;;;6220270;23;20601;-91
2021/10/14 07:24:03;;;;;;;7.78;4.32;;;11.10;99.90;;;;;;6220489;23;20004;-92
2021/10/14 07:26:28;;;;;;;6.57;3.17;;;11.10;99.90;;;;;;6220511;23;20011;-93
2021/10/14 07:28:54;;;;;;;5.75;3.45;;;11.10;99.90;;;;;;6221708;23;20039;-90
2021/10/14 07:31:20;;;;;;;7.15;4.05;;;11.20;99.90;;;;;;6222359;23;20079;-91
2021/10/14 07:33:45;;;;;;;5.70;3.80;;;11.20;99.90;;;;;;6222191;23;20050;-91
2021/10/14 07:36:11;;;;;;;6.78;3.33;;;11.20;99.90;;;;;;6222202;23;20435;-90
2021/10/14 07:38:36;;;;;;;7.10;3.60;;;11.20;99.90;;;;;;6222850;23;20007;-90
2021/10/14 07:41:02;;;;;;;8.48;3.13;;;11.20;99.90;;;;;;6222900;23;20079;-90
2021/10/14 07:43:28;;;;;;;5.68;3.40;;;11.30;99.90;;;;;;6223392;23;20000;-91
2021/10/14 07:45:54;;;;;;;4.40;3.33;;;11.30;99.90;;;;;;6223660;23;20084;-90
2021/10/14 07:48:20;;;;;;;5.15;3.55;;;11.30;99.90;;;;;;6223870;23;20351;-90
2021/10/14 07:50:46;;;;;;;5.50;3.45;;;11.40;99.90;;;;;;6224626;23;20083;-89
2021/10/14 07:53:17;;;;;;;5.63;3.63;;;11.50;99.90;;;;;;6235482;23;20016;-92
2021/10/14 07:55:44;;;;;;;4.95;3.28;;;11.50;99.90;;;;;;6246983;23;20148;-89
2021/10/14 07:58:10;;;;;;;6.13;3.35;;;11.50;99.90;;;;;;6246631;23;20068;-91
2021/10/14 08:00:41;;;;;;;7.32;3.88;;;11.60;99.90;;;;;;6246459;23;20008;-91
2021/10/14 08:03:07;;;;;;;5.43;3.63;;;11.60;99.90;;;;;;6243818;23;20012;-90
2021/10/14 08:05:33;;;;;;;4.53;3.38;;;11.70;99.90;;;;;;6237740;23;20023;-91
2021/10/14 08:07:59;;;;;;;6.18;4.03;;;11.70;99.90;;;;;;6230504;23;20012;-92
2021/10/14 08:10:26;;;;;;;8.77;3.75;;;11.80;99.90;;;;;;6233709;23;20022;-92
2021/10/14 08:12:52;;;;;;;6.32;3.22;;;11.80;99.90;;;;;;6228139;23;20000;-92
2021/10/14 08:15:17;;;;;;;4.25;2.70;;;11.90;99.90;;;;;;6229459;23;20004;-93
2021/10/14 08:17:43;;;;;;;5.63;3.00;;;12.00;99.90;;;;;;6228196;23;20012;-91
2021/10/14 08:20:09;;;;;;;5.18;2.30;;;12.00;99.90;;;;;;6226474;23;20004;-92
2021/10/14 08:22:38;;;;;;;6.53;2.47;;;12.10;99.90;;;;;;6224058;23;20028;-91
2021/10/14 08:25:05;;;;;;;4.63;2.28;;;12.10;99.90;;;;;;6223558;23;20000;-91
2021/10/14 08:27:31;;;;;;;5.93;2.70;;;12.20;99.90;;;;;;6224679;23;20004;-91
2021/10/14 08:29:57;;;;;;;3.90;2.78;;;12.20;99.90;;;;;;6225655;23;20008;-91
2021/10/14 08:32:23;;;;;;;8.25;2.92;;;12.20;99.90;;;;;;6226602;23;20059;-92
2021/10/14 08:34:48;;;;;;;4.32;2.83;;;12.20;99.90;;;;;;6223918;23;20004;-93
2021/10/14 08:37:20;;;;;;;3.97;2.63;;;12.20;99.90;;;;;;6221787;23;20020;-93
2021/10/14 08:39:47;;;;;;;4.90;2.75;;;12.20;99.90;;;;;;6221937;23;20083;-92
2021/10/14 08:45:43;;;;;;;4.25;2.72;;;12.20;99.90;;;;;;5124747;27;20469;-91
2021/10/14 08:48:10;;;;;;;5.18;3.38;;;12.20;99.90;;;;;;5109331;28;20072;-90
2021/10/14 08:50:39;;;;;;;4.78;2.78;;;12.30;99.90;;;;;;5117218;28;20024;-92
2021/10/14 08:53:05;;;;;;;2.95;2.35;;;12.40;99.90;;;;;;5117710;28;20763;-91
2021/10/14 08:55:34;;;;;;;5.97;2.75;;;12.50;99.90;;;;;;5118916;28;20027;-91
2021/10/14 08:58:00;;;;;;;6.32;3.17;;;12.60;99.90;;;;;;5118190;28;20053;-92
2021/10/14 09:00:26;;;;;;;4.60;2.42;;;12.70;99.90;;;;;;5118023;28;20028;-90
2021/10/14 09:02:55;;;;;;;5.88;2.58;;;12.70;99.90;;;;;;5126129;28;20016;-91
2021/10/14 09:05:20;;;;;;;6.20;2.40;;;12.80;99.90;;;;;;5116756;28;20043;-91
2021/10/14 09:07:50;;;;;;;7.07;2.90;;;12.90;99.90;;;;;;5114429;28;20027;-92
2021/10/14 09:10:16;;;;;;;6.30;2.65;;;12.90;99.90;;;;;;5113010;28;20119;-91
2021/10/14 09:12:45;;;;;;;5.10;2.60;;;12.90;99.90;;;;;;5113047;28;20048;-91
2021/10/14 09:15:12;;;;;;;5.20;2.65;;;13.00;99.90;;;;;;5112122;28;20024;-92
2021/10/14 09:17:38;;;;;;;4.32;2.92;;;13.00;99.90;;;;;;5111921;28;20028;-92
2021/10/14 09:20:27;;;;;;;4.95;2.53;;;13.00;99.90;;;;;;5094708;28;20370;-90
2021/10/14 09:23:00;;;;;;;9.32;3.50;;;13.10;99.90;;;;;;5111236;28;20050;-93
2021/10/14 09:25:32;;;;;;;5.72;2.63;;;13.10;99.90;;;;;;5094124;28;20396;-91
2021/10/14 09:28:19;;;;;;;6.63;2.65;;;13.20;99.90;;;;;;5094461;28;20019;-92
2021/10/14 09:30:57;;;;;;;9.02;2.20;;;13.20;99.90;;;;;;5112681;28;20035;-90
2021/10/14 09:33:35;;;;;;;4.25;2.22;;;13.20;99.90;;;;;;5112551;28;20478;-93
2021/10/14 09:36:26;;;;;;;3.33;1.88;;;13.20;99.90;;;;;;5113763;28;20028;-92
2021/10/14 09:39:03;;;;;;;5.30;2.38;;;13.20;99.90;;;;;;5115356;28;20032;-93
2021/10/14 09:41:35;;;;;;;4.32;1.90;;;13.20;99.90;;;;;;5114711;28;20384;-92
2021/10/14 09:44:05;;;;;;;3.83;2.00;;;13.20;99.90;;;;;;5113399;28;20059;-92
2021/10/14 09:46:38;;;;;;;5.25;2.05;;;13.20;99.90;;;;;;5113290;28;20020;-89
2021/10/14 09:49:10;;;;;;;5.28;2.10;;;13.20;99.90;;;;;;5110944;28;20107;-91
2021/10/14 09:51:36;;;;;;;4.00;1.83;;;13.20;99.90;;;;;;5110644;28;20024;-94
2021/10/14 09:54:03;;;;;;;3.95;2.17;;;13.30;99.90;;;;;;5112759;28;20028;-92
2021/10/14 09:56:30;;;;;;;9.70;2.35;;;13.20;99.90;;;;;;5101750;28;20020;-92
2021/10/14 09:58:58;;;;;;;4.97;2.25;;;13.30;99.90;;;;;;5095355;28;20044;-92
2021/10/14 10:01:24;;;;;;;3.40;2.08;;;13.30;99.90;;;;;;5080346;28;20020;-91
2021/10/14 10:03:52;;;;;;;4.57;2.00;;;13.30;99.90;;;;;;5115959;28;20032;-92
2021/10/14 10:06:25;;;;;;;5.53;2.20;;;13.30;99.90;;;;;;5097052;28;20472;-90
2021/10/14 10:08:53;;;;;;;3.47;2.03;;;13.30;99.90;;;;;;5097605;28;20151;-93
2021/10/14 10:11:21;;;;;;;3.17;1.73;;;13.30;99.90;;;;;;5097373;28;20062;-90
2021/10/14 10:13:52;;;;;;;4.10;2.20;;;13.30;99.90;;;;;;5119919;28;20061;-92
2021/10/14 10:16:25;;;;;;;3.95;2.53;;;13.40;99.90;;;;;;5103698;28;20020;-91
2021/10/14 10:18:56;;;;;;;2.55;1.88;;;13.40;99.90;;;;;;5102565;28;20232;-92
2021/10/14 10:21:31;;;;;;;7.25;2.17;;;13.40;99.90;;;;;;5099925;28;20016;-90
2021/10/14 10:24:03;;;;;;;3.15;2.00;;;13.50;99.90;;;;;;5097042;28;20070;-90
2021/10/14 10:26:35;;;;;;;6.95;2.15;;;13.50;99.90;;;;;;5098369;28;20019;-93
2021/10/14 10:29:26;;;;;;;6.80;1.92;;;13.60;99.90;;;;;;5098835;28;20055;-93
2021/10/14 10:31:53;;;;;;;3.40;1.83;;;13.70;99.90;;;;;;5097260;28;20093;-93
2021/10/14 10:37:38;;;;;;;5.93;2.03;;;13.70;99.90;;;;;;5116025;28;20023;-90
2021/10/14 10:40:13;;;;;;;4.20;1.80;;;13.80;99.90;;;;;;5098071;28;20073;-92
2021/10/14 10:42:57;;;;;;;4.97;2.00;;;13.80;99.90;;;;;;5116447;28;20490;-93
2021/10/14 10:45:25;;;;;;;4.97;1.77;;;13.80;99.90;;;;;;5098800;28;20050;-92
2021/10/14 10:47:54;;;;;;;4.80;1.80;;;13.90;99.90;;;;;;5096258;28;20476;-91
2021/10/14 10:50:25;;;;;;;3.00;1.67;;;13.90;99.90;;;;;;5096684;28;20111;-90
2021/10/14 10:53:02;;;;;;;;;;;13.90;99.90;;;;;;5096561;28;20071;-92
2021/10/14 10:55:27;;;;;;;4.15;1.98;;;13.90;99.90;;;;;;5095971;28;20011;-91
2021/10/14 10:57:54;;;;;;;5.43;2.10;;;14.00;99.90;;;;;;5095773;28;20111;-93
2021/10/14 11:00:23;;;;;;;5.97;2.00;;;14.00;99.90;;;;;;5096307;28;20495;-92
2021/10/14 11:03:09;;;;;;;9.30;2.47;;;14.10;99.90;;;;;;5095157;28;20028;-93
2021/10/14 11:05:44;;;;;;;6.80;2.20;;;14.10;99.90;;;;;;5114806;28;20095;-90
2021/10/14 11:08:13;;;;;;;4.97;1.98;;;14.10;99.90;;;;;;5093483;28;20026;-92
2021/10/14 11:10:38;;;;;;;6.35;2.60;;;14.20;99.90;;;;;;5098506;28;20020;-92
2021/10/14 11:13:04;;;;;;;6.70;2.95;;;14.20;99.90;;;;;;5099306;28;20408;-93
2021/10/14 11:15:30;;;;;;;7.72;2.40;;;14.20;99.90;;;;;;5099133;28;20512;-91
2021/10/14 11:18:01;;;;;;;5.25;2.10;;;14.20;99.90;;;;;;5096966;28;20034;-93
2021/10/14 11:20:26;;;;;;;5.85;2.40;;;14.20;99.90;;;;;;5097009;28;20080;-92
2021/10/14 11:22:52;;;;;;;7.60;2.00;;;14.20;99.90;;;;;;5113169;28;20019;-93
2021/10/14 11:25:17;;;;;;;9.73;2.20;;;14.40;99.90;;;;;;5112943;28;20023;-92
2021/10/14 11:27:58;;;;;;;5.15;2.10;;;14.40;99.90;;;;;;5095225;28;20019;-93
2021/10/14 11:30:25;;;;;;;8.68;2.10;;;14.50;99.90;;;;;;5094289;28;20537;-94
2021/10/14 11:32:58;;;;;;;3.35;1.95;;;14.50;99.90;;;;;;5095318;28;20027;-89
2021/10/14 11:35:24;;;;;;;4.93;2.10;;;14.50;99.90;;;;;;5096104;28;20084;-92
2021/10/14 11:37:50;;;;;;;4.30;2.03;;;14.50;99.90;;;;;;5096892;28;20054;-90
2021/10/14 11:40:36;;;;;;;5.18;2.10;;;14.50;99.90;;;;;;5097752;28;20027;-92
2021/10/14 11:43:01;;;;;;;5.85;2.17;;;14.50;99.90;;;;;;5095373;28;20024;-93
2021/10/14 11:45:27;;;;;;;13.30;3.50;;;14.50;99.90;;;;;;5095459;28;20495;-94
2021/10/14 11:47:53;;;;;;;10.02;2.85;;;14.50;99.90;;;;;;5096097;28;20019;-92
2021/10/14 11:50:25;;;;;;;4.90;2.10;;;14.50;99.90;;;;;;5095418;28;20026;-93
2021/10/14 11:53:03;;;;;;;6.68;2.83;;;14.50;99.90;;;;;;5094547;28;20030;-92
2021/10/14 11:55:30;;;;;;;4.38;2.05;;;14.60;99.90;;;;;;5095180;28;20031;-93
2021/10/14 11:58:00;;;;;;;4.85;1.98;;;14.60;99.90;;;;;;5095187;28;20023;-92
2021/10/14 12:00:28;;;;;;;5.18;2.28;;;14.50;99.90;;;;;;5093098;28;20473;-93
2021/10/14 12:02:57;;;;;;;5.43;1.95;;;14.50;99.90;;;;;;5101191;28;20027;-92
2021/10/14 12:05:23;;;;;;;7.40;2.55;;;14.60;99.90;;;;;;5099743;28;20019;-91
2021/10/14 12:07:50;;;;;;;5.47;3.05;;;14.60;99.90;;;;;;5095340;28;20124;-92
2021/10/14 12:10:37;;;;;;;6.50;2.42;;;14.60;99.90;;;;;;5095493;28;20491;-92
2021/10/14 12:13:06;;;;;;;3.47;1.80;;;14.70;99.90;;;;;;5093337;28;20023;-92
2021/10/14 12:15:33;;;;;;;7.45;2.95;;;14.70;99.90;;;;;;5094746;28;20043;-91
2021/10/14 12:17:59;;;;;;;7.35;3.45;;;14.70;99.90;;;;;;5097725;27;20133;-93
2021/10/14 12:20:27;;;;;;;8.05;3.55;;;14.70;99.90;;;;;;5097984;28;20062;-92
2021/10/14 12:23:05;;;;;;;10.60;3.17;;;14.60;99.90;;;;;;5095011;28;20013;-92
2021/10/14 12:25:37;;;;;;;9.90;3.35;;;14.70;99.90;;;;;;5095365;28;20016;-91
2021/10/14 12:28:21;;;;;;;6.20;2.95;;;14.60;99.90;;;;;;5095054;28;20457;-90
2021/10/14 12:30:46;;;;;;;5.68;2.58;;;14.70;99.90;;;;;;5094028;28;20024;-91
2021/10/14 12:33:12;;;;;;;7.97;3.30;;;14.70;99.90;;;;;;5113214;28;20015;-92
2021/10/14 12:35:49;;;;;;;6.32;3.20;;;14.70;99.90;;;;;;5094821;28;20088;-89
2021/10/14 12:38:15;;;;;;;8.00;3.47;;;14.70;99.90;;;;;;5113768;28;20022;-92
2021/10/14 12:40:57;;;;;;;9.35;2.95;;;14.60;99.90;;;;;;5097816;28;20413;-93
2021/10/14 12:43:26;;;;;;;8.95;3.85;;;14.60;99.90;;;;;;5096613;28;20012;-92
2021/10/14 12:45:58;;;;;;;7.68;3.63;;;14.50;99.90;;;;;;5112143;28;20012;-92
2021/10/14 12:49:13;;;;;;;7.40;3.05;;;14.50;99.90;;;;;;5095282;28;20023;-92
2021/10/14 12:51:26;;;;;;;6.25;3.28;;;14.50;99.90;;;;;;5109820;28;20525;-93
2021/10/14 12:54:02;;;;;;;5.80;3.72;;;14.40;99.90;;;;;;5094506;28;20059;-92